sensor_id;sensor_type;location;lat;lon;timestamp;P1;durP1;ratioP1;P2;durP2;ratioP2
10845;SDS011;5476;51.540;7.186;2022-09-27T05:34:43;10.93;;;6.87;;
10845;SDS011;5476;51.540;7.186;2022-09-27T05:37:11;10.43;;;6.30;;
10845;SDS011;5476;51.540;7.186;2022-09-27T05:39:39;8.43;;;5.70;;
10845;SDS011;5476;51.540;7.186;2022-09-27T05:42:22;7.80;;;4.77;;
10845;SDS011;5476;51.540;7.186;2022-09-27T12:46:07;5.10;;;4.60;;
10845;SDS011;5476;51.540;7.186;2022-09-27T12:48:43;5.90;;;4.30;;
10845;SDS011;5476;51.540;7.186;2022-09-27T12:51:18;4.53;;;3.60;;
10845;SDS011;5476;51.540;7.186;2022-09-27T12:53:52;3.87;;;3.07;;
10845;SDS011;5476;51.540;7.186;2022-09-27T13:03:17;3.90;;;3.07;;
10845;SDS011;5476;51.540;7.186;2022-09-27T13:12:55;4.67;;;4.10;;
10845;SDS011;5476;51.540;7.186;2022-09-27T13:15:25;5.43;;;4.87;;
10845;SDS011;5476;51.540;7.186;2022-09-27T13:17:56;5.57;;;4.60;;
10845;SDS011;5476;51.540;7.186;2022-09-27T13:26:21;4.73;;;4.33;;
10845;SDS011;5476;51.540;7.186;2022-09-27T13:29:19;4.67;;;4.20;;
10845;SDS011;5476;51.540;7.186;2022-09-27T13:32:00;4.37;;;3.97;;
10845;SDS011;5476;51.540;7.186;2022-09-27T13:34:47;6.37;;;3.70;;
10845;SDS011;5476;51.540;7.186;2022-09-27T13:37:33;3.63;;;3.00;;
10845;SDS011;5476;51.540;7.186;2022-09-27T13:40:09;2.83;;;2.23;;
10845;SDS011;5476;51.540;7.186;2022-09-27T13:42:47;1.60;;;1.50;;
10845;SDS011;5476;51.540;7.186;2022-09-27T13:45:21;1.40;;;1.17;;
10845;SDS011;5476;51.540;7.186;2022-09-27T13:47:53;1.60;;;1.10;;
10845;SDS011;5476;51.540;7.186;2022-09-27T13:50:23;0.80;;;0.70;;
10845;SDS011;5476;51.540;7.186;2022-09-27T13:52:58;1.10;;;0.90;;
10845;SDS011;5476;51.540;7.186;2022-09-27T13:55:38;0.90;;;0.70;;
10845;SDS011;5476;51.540;7.186;2022-09-27T13:58:11;1.93;;;1.10;;
10845;SDS011;5476;51.540;7.186;2022-09-27T14:00:43;1.30;;;0.90;;
10845;SDS011;5476;51.540;7.186;2022-09-27T14:03:14;1.73;;;1.03;;
10845;SDS011;5476;51.540;7.186;2022-09-27T14:06:12;2.10;;;0.90;;
10845;SDS011;5476;51.540;7.186;2022-09-27T14:08:46;1.13;;;0.93;;
10845;SDS011;5476;51.540;7.186;2022-09-27T14:11:17;1.10;;;0.90;;
10845;SDS011;5476;51.540;7.186;2022-09-27T14:13:47;1.43;;;1.10;;
10845;SDS011;5476;51.540;7.186;2022-09-27T14:16:15;1.40;;;1.10;;
10845;SDS011;5476;51.540;7.186;2022-09-27T14:18:45;1.10;;;1.00;;
10845;SDS011;5476;51.540;7.186;2022-09-27T14:21:21;1.93;;;1.10;;
10845;SDS011;5476;51.540;7.186;2022-09-27T14:26:45;1.57;;;1.00;;
10845;SDS011;5476;51.540;7.186;2022-09-27T14:29:14;1.43;;;1.10;;
10845;SDS011;5476;51.540;7.186;2022-09-27T14:31:42;1.67;;;0.90;;
10845;SDS011;5476;51.540;7.186;2022-09-27T14:34:10;2.00;;;1.10;;
10845;SDS011;5476;51.540;7.186;2022-09-27T14:36:38;1.50;;;1.00;;
10845;SDS011;5476;51.540;7.186;2022-09-27T14:39:24;2.70;;;1.00;;
10845;SDS011;5476;51.540;7.186;2022-09-27T14:41:56;2.03;;;1.10;;
10845;SDS011;5476;51.540;7.186;2022-09-27T14:44:24;1.77;;;0.97;;
10845;SDS011;5476;51.540;7.186;2022-09-27T14:47:06;1.17;;;0.93;;
10845;SDS011;5476;51.540;7.186;2022-09-27T14:49:34;2.07;;;0.80;;
10845;SDS011;5476;51.540;7.186;2022-09-27T14:52:01;1.33;;;0.90;;
10845;SDS011;5476;51.540;7.186;2022-09-27T14:54:30;1.23;;;0.80;;
10845;SDS011;5476;51.540;7.186;2022-09-27T14:56:57;1.10;;;0.60;;
10845;SDS011;5476;51.540;7.186;2022-09-27T14:59:25;0.80;;;0.70;;
10845;SDS011;5476;51.540;7.186;2022-09-27T15:01:57;1.60;;;0.70;;
10845;SDS011;5476;51.540;7.186;2022-09-27T15:04:27;1.20;;;0.63;;
10845;SDS011;5476;51.540;7.186;2022-09-27T15:06:57;1.70;;;0.87;;
10845;SDS011;5476;51.540;7.186;2022-09-27T15:09:24;1.50;;;0.70;;
10845;SDS011;5476;51.540;7.186;2022-09-27T15:11:54;1.90;;;0.63;;
10845;SDS011;5476;51.540;7.186;2022-09-27T15:14:25;0.83;;;0.60;;
10845;SDS011;5476;51.540;7.186;2022-09-27T15:16:53;1.97;;;1.00;;
10845;SDS011;5476;51.540;7.186;2022-09-27T15:19:26;3.77;;;1.13;;
10845;SDS011;5476;51.540;7.186;2022-09-27T15:21:54;1.63;;;1.00;;
10845;SDS011;5476;51.540;7.186;2022-09-27T15:24:35;2.10;;;1.20;;
10845;SDS011;5476;51.540;7.186;2022-09-27T15:27:10;1.80;;;1.00;;
10845;SDS011;5476;51.540;7.186;2022-09-27T15:29:40;1.00;;;0.87;;
10845;SDS011;5476;51.540;7.186;2022-09-27T15:32:11;1.73;;;1.00;;
10845;SDS011;5476;51.540;7.186;2022-09-27T15:34:42;3.50;;;1.10;;
10845;SDS011;5476;51.540;7.186;2022-09-27T15:37:21;2.83;;;1.30;;
10845;SDS011;5476;51.540;7.186;2022-09-27T15:39:52;2.97;;;1.13;;
10845;SDS011;5476;51.540;7.186;2022-09-27T15:42:20;2.40;;;1.07;;
10845;SDS011;5476;51.540;7.186;2022-09-27T15:44:48;1.20;;;0.80;;
10845;SDS011;5476;51.540;7.186;2022-09-27T15:53:05;1.73;;;0.80;;
10845;SDS011;5476;51.540;7.186;2022-09-27T15:55:34;5.33;;;1.30;;
10845;SDS011;5476;51.540;7.186;2022-09-27T15:58:10;3.00;;;1.10;;
10845;SDS011;5476;51.540;7.186;2022-09-27T16:00:49;2.53;;;1.20;;
10845;SDS011;5476;51.540;7.186;2022-09-27T16:03:16;2.70;;;1.20;;
10845;SDS011;5476;51.540;7.186;2022-09-27T16:05:43;3.10;;;1.33;;
10845;SDS011;5476;51.540;7.186;2022-09-27T16:08:10;3.50;;;1.60;;
10845;SDS011;5476;51.540;7.186;2022-09-27T16:10:38;3.33;;;1.60;;
10845;SDS011;5476;51.540;7.186;2022-09-27T16:13:09;3.37;;;1.63;;
10845;SDS011;5476;51.540;7.186;2022-09-27T16:15:36;5.33;;;1.40;;
10845;SDS011;5476;51.540;7.186;2022-09-27T16:18:04;4.43;;;1.87;;
10845;SDS011;5476;51.540;7.186;2022-09-27T16:20:31;4.27;;;1.73;;
10845;SDS011;5476;51.540;7.186;2022-09-27T16:22:58;5.13;;;1.53;;
10845;SDS011;5476;51.540;7.186;2022-09-27T16:25:26;4.17;;;1.87;;
10845;SDS011;5476;51.540;7.186;2022-09-27T16:27:55;5.50;;;1.63;;
10845;SDS011;5476;51.540;7.186;2022-09-27T16:30:24;3.83;;;1.80;;
10845;SDS011;5476;51.540;7.186;2022-09-27T16:32:52;3.20;;;2.00;;
10845;SDS011;5476;51.540;7.186;2022-09-27T16:35:20;3.47;;;2.00;;
10845;SDS011;5476;51.540;7.186;2022-09-27T16:37:48;4.03;;;1.60;;
10845;SDS011;5476;51.540;7.186;2022-09-27T16:40:15;3.40;;;1.70;;
10845;SDS011;5476;51.540;7.186;2022-09-27T16:42:43;2.60;;;1.33;;
10845;SDS011;5476;51.540;7.186;2022-09-27T16:45:13;2.87;;;1.27;;
10845;SDS011;5476;51.540;7.186;2022-09-27T16:47:42;2.40;;;1.60;;
10845;SDS011;5476;51.540;7.186;2022-09-27T16:50:11;3.73;;;1.70;;
10845;SDS011;5476;51.540;7.186;2022-09-27T16:52:56;8.10;;;5.23;;
10845;SDS011;5476;51.540;7.186;2022-09-27T16:55:25;11.00;;;5.57;;
10845;SDS011;5476;51.540;7.186;2022-09-27T16:57:56;4.17;;;2.30;;
10845;SDS011;5476;51.540;7.186;2022-09-27T17:00:23;5.33;;;2.73;;
10845;SDS011;5476;51.540;7.186;2022-09-27T17:02:54;5.90;;;3.07;;
10845;SDS011;5476;51.540;7.186;2022-09-27T17:05:21;6.20;;;2.93;;
10845;SDS011;5476;51.540;7.186;2022-09-27T17:07:49;4.67;;;2.70;;
10845;SDS011;5476;51.540;7.186;2022-09-27T17:10:17;2.23;;;1.80;;
10845;SDS011;5476;51.540;7.186;2022-09-27T17:12:44;2.67;;;1.70;;
10845;SDS011;5476;51.540;7.186;2022-09-27T17:15:12;3.80;;;2.27;;
10845;SDS011;5476;51.540;7.186;2022-09-27T17:17:39;3.93;;;2.17;;
10845;SDS011;5476;51.540;7.186;2022-09-27T17:20:10;3.37;;;1.80;;
10845;SDS011;5476;51.540;7.186;2022-09-27T17:22:37;2.47;;;1.70;;
10845;SDS011;5476;51.540;7.186;2022-09-27T17:25:05;4.17;;;1.80;;
10845;SDS011;5476;51.540;7.186;2022-09-27T17:27:32;2.43;;;1.83;;
10845;SDS011;5476;51.540;7.186;2022-09-27T17:30:00;3.70;;;1.93;;
10845;SDS011;5476;51.540;7.186;2022-09-27T17:32:27;2.63;;;1.80;;
10845;SDS011;5476;51.540;7.186;2022-09-27T17:34:55;1.40;;;1.30;;
10845;SDS011;5476;51.540;7.186;2022-09-27T17:37:24;3.03;;;1.60;;
10845;SDS011;5476;51.540;7.186;2022-09-27T17:39:51;2.80;;;1.50;;
10845;SDS011;5476;51.540;7.186;2022-09-27T17:42:20;3.27;;;1.70;;
10845;SDS011;5476;51.540;7.186;2022-09-27T17:44:49;2.30;;;1.60;;
10845;SDS011;5476;51.540;7.186;2022-09-27T17:47:16;3.93;;;1.70;;
10845;SDS011;5476;51.540;7.186;2022-09-27T17:50:01;1.47;;;1.30;;
10845;SDS011;5476;51.540;7.186;2022-09-27T17:52:47;3.10;;;1.70;;
10845;SDS011;5476;51.540;7.186;2022-09-27T17:55:14;3.70;;;1.80;;
10845;SDS011;5476;51.540;7.186;2022-09-27T17:57:43;3.53;;;1.90;;
10845;SDS011;5476;51.540;7.186;2022-09-27T18:00:13;2.13;;;1.73;;
10845;SDS011;5476;51.540;7.186;2022-09-27T18:02:40;1.80;;;1.50;;
10845;SDS011;5476;51.540;7.186;2022-09-27T18:05:09;2.67;;;1.80;;
10845;SDS011;5476;51.540;7.186;2022-09-27T18:07:36;3.90;;;1.77;;
10845;SDS011;5476;51.540;7.186;2022-09-27T18:10:07;4.23;;;2.00;;
10845;SDS011;5476;51.540;7.186;2022-09-27T18:12:34;3.00;;;1.70;;
10845;SDS011;5476;51.540;7.186;2022-09-27T18:15:03;4.73;;;1.73;;
10845;SDS011;5476;51.540;7.186;2022-09-27T18:17:32;3.27;;;1.73;;
10845;SDS011;5476;51.540;7.186;2022-09-27T18:20:05;2.03;;;1.80;;
10845;SDS011;5476;51.540;7.186;2022-09-27T18:22:43;4.23;;;2.10;;
10845;SDS011;5476;51.540;7.186;2022-09-27T18:25:20;3.97;;;3.00;;
10845;SDS011;5476;51.540;7.186;2022-09-27T18:27:49;5.23;;;2.43;;
10845;SDS011;5476;51.540;7.186;2022-09-27T18:30:32;3.50;;;2.20;;
10845;SDS011;5476;51.540;7.186;2022-09-27T18:33:20;4.87;;;2.90;;
10845;SDS011;5476;51.540;7.186;2022-09-27T18:36:00;3.50;;;1.83;;
10845;SDS011;5476;51.540;7.186;2022-09-27T18:38:38;4.73;;;1.97;;
10845;SDS011;5476;51.540;7.186;2022-09-27T18:41:29;5.17;;;2.60;;
10845;SDS011;5476;51.540;7.186;2022-09-27T18:44:43;6.90;;;2.13;;
10845;SDS011;5476;51.540;7.186;2022-09-27T18:47:49;3.07;;;2.00;;
10845;SDS011;5476;51.540;7.186;2022-09-27T18:50:39;3.20;;;1.73;;
10845;SDS011;5476;51.540;7.186;2022-09-27T18:53:09;3.57;;;2.40;;
10845;SDS011;5476;51.540;7.186;2022-09-27T18:55:42;3.67;;;1.77;;
